Time;durP1;ratioP1;P1;durP2;ratioP2;P2;SDS_P1;SDS_P2;PMS_P1;PMS_P2;Temp;Humidity;BMP_temperature;BMP_pressure;BME280_temperature;BME280_humidity;BME280_pressure;Samples;Min_cycle;Max_cycle;Signal;HPM_P1;HPM_P2
2023/07/27 00:01:07;;;;;;;1.42;0.80;;;;;;;12.38;100.00;98424.69;4485921;31;20497;-67
2023/07/27 00:03:35;;;;;;;1.70;0.93;;;;;;;12.35;100.00;98428.44;4485849;31;20474;-67
2023/07/27 00:06:03;;;;;;;3.25;1.25;;;;;;;12.34;100.00;98436.50;4486039;31;20546;-67
2023/07/27 00:08:31;;;;;;;1.55;1.00;;;;;;;12.21;100.00;98435.12;4486014;31;20104;-66
2023/07/27 00:10:58;;;;;;;1.62;1.02;;;;;;;12.10;100.00;98437.19;4485849;31;20085;-66
2023/07/27 00:13:25;;;;;;;1.50;1.20;;;;;;;12.10;100.00;98435.38;4485967;31;20111;-67
2023/07/27 00:15:52;;;;;;;4.47;1.15;;;;;;;11.97;100.00;98435.78;4484572;32;20100;-67
2023/07/27 00:18:20;;;;;;;1.60;1.20;;;;;;;11.94;100.00;98435.28;4485914;32;20084;-66
2023/07/27 00:20:48;;;;;;;1.67;1.35;;;;;;;11.81;100.00;98433.88;4485926;32;20089;-66
2023/07/27 00:23:15;;;;;;;1.48;1.20;;;;;;;11.81;100.00;98433.88;4485757;31;20100;-66
2023/07/27 00:25:42;;;;;;;3.85;1.55;;;;;;;11.84;100.00;98436.19;4485870;32;20119;-66
2023/07/27 00:28:09;;;;;;;3.22;1.70;;;;;;;11.79;100.00;98434.97;4485755;32;20126;-66
2023/07/27 00:30:39;;;;;;;2.25;1.70;;;;;;;11.84;100.00;98436.19;4485694;32;20100;-66
2023/07/27 00:33:11;;;;;;;3.90;1.20;;;;;;;11.86;100.00;98439.47;4485846;31;20159;-67
2023/07/27 00:35:38;;;;;;;2.97;1.45;;;;;;;11.87;100.00;98430.63;4485569;32;20538;-67
2023/07/27 00:38:06;;;;;;;2.15;1.52;;;;;;;11.87;100.00;98438.50;4484459;32;20168;-66
2023/07/27 00:40:34;;;;;;;4.75;1.87;;;;;;;11.95;100.00;98442.19;4485693;32;20100;-67
2023/07/27 00:43:01;;;;;;;2.15;1.60;;;;;;;11.98;100.00;98436.63;4485664;32;20487;-67
2023/07/27 00:45:28;;;;;;;2.28;1.70;;;;;;;11.95;100.00;98434.31;4485487;32;20088;-66
2023/07/27 00:47:56;;;;;;;2.40;1.50;;;;;;;11.94;100.00;98437.91;4485620;32;20107;-66
2023/07/27 00:50:23;;;;;;;2.03;1.52;;;;;;;11.97;100.00;98448.91;4484273;32;20169;-67
2023/07/27 00:52:51;;;;;;;1.90;1.67;;;;;;;11.91;100.00;98452.13;4485607;32;20395;-67
2023/07/27 00:55:20;;;;;;;2.08;1.62;;;;;;;11.93;100.00;98455.47;4485785;32;20123;-66
2023/07/27 00:57:47;;;;;;;2.17;1.60;;;;;;;11.88;100.00;98448.03;4485598;31;20498;-66
2023/07/27 01:00:14;;;;;;;2.45;1.50;;;;;;;11.87;100.00;98451.63;4484387;32;20100;-66
2023/07/27 01:02:46;;;;;;;2.35;1.58;;;;;;;11.93;100.00;98455.47;4485601;31;20092;-66
2023/07/27 01:05:13;;;;;;;1.87;1.40;;;;;;;11.93;100.00;98444.97;4484223;32;20096;-67
2023/07/27 01:07:42;;;;;;;2.95;1.55;;;;;;;11.94;100.00;98446.59;4485594;31;20096;-66
2023/07/27 01:10:10;;;;;;;1.55;1.25;;;;;;;11.86;100.00;98449.97;4485732;31;20153;-66
2023/07/27 01:12:42;;;;;;;2.87;1.73;;;;;;;11.80;100.00;98455.81;4485478;31;20084;-66
2023/07/27 01:15:14;;;;;;;2.25;1.45;;;;;;;11.77;100.00;98453.50;4471344;32;20089;-66
2023/07/27 01:17:49;;;;;;;2.17;1.48;;;;;;;11.77;100.00;98445.63;4468434;32;20084;-66
2023/07/27 01:20:27;;;;;;;;;;;;;;;11.78;100.00;98452.53;4470495;32;20081;-67
2023/07/27 01:23:17;;;;;;;2.42;1.58;;;;;;;11.80;100.00;98449.75;4469863;32;19998;-67
2023/07/27 01:26:07;;;;;;;1.73;1.30;;;;;;;11.72;100.00;98448.72;4468609;32;20153;-66
2023/07/27 01:29:13;;;;;;;1.92;1.55;;;;;;;11.74;100.00;98451.19;4469741;32;20510;-67
2023/07/27 01:31:43;;;;;;;3.10;1.42;;;;;;;11.71;100.00;98448.88;4469828;32;20165;-66
2023/07/27 01:34:18;;;;;;;2.92;1.40;;;;;;;11.70;100.00;98455.09;4468360;32;20604;-66
2023/07/27 01:36:49;;;;;;;1.60;1.40;;;;;;;11.74;100.00;98448.56;4468567;32;20080;-66
2023/07/27 01:39:18;;;;;;;2.10;1.80;;;;;;;11.71;100.00;98448.88;4468436;32;20081;-66
2023/07/27 01:41:46;;;;;;;1.65;1.40;;;;;;;11.68;100.00;98457.03;4468450;32;20096;-66
2023/07/27 01:44:13;;;;;;;2.65;1.73;;;;;;;11.66;100.00;98453.75;4469661;32;20465;-66
2023/07/27 01:46:41;;;;;;;4.90;1.65;;;;;;;11.60;100.00;98447.31;4468136;32;20093;-66
2023/07/27 01:49:10;;;;;;;1.73;1.40;;;;;;;11.60;100.00;98444.69;4468493;32;20085;-67
2023/07/27 01:51:39;;;;;;;1.52;1.42;;;;;;;11.55;100.00;98446.91;4473409;32;20131;-67
2023/07/27 01:54:08;;;;;;;1.48;1.20;;;;;;;11.52;100.00;98444.59;4484142;32;20160;-66
2023/07/27 01:56:37;;;;;;;2.10;1.70;;;;;;;11.52;100.00;98448.06;4483845;32;20084;-67
2023/07/27 01:59:06;;;;;;;7.47;1.70;;;;;;;11.52;100.00;98441.97;4458205;32;20112;-66
2023/07/27 02:01:36;;;;;;;2.22;1.67;;;;;;;11.47;100.00;98437.19;4485299;31;20088;-66
2023/07/27 02:04:05;;;;;;;2.12;1.48;;;;;;;11.39;100.00;98433.69;4485254;31;20467;-66
2023/07/27 02:06:32;;;;;;;2.25;1.55;;;;;;;11.39;100.00;98441.56;4485148;31;20092;-66
2023/07/27 02:09:00;;;;;;;2.28;1.55;;;;;;;11.37;100.00;98444.34;4485154;31;20116;-67
2023/07/27 02:11:28;;;;;;;3.53;1.55;;;;;;;11.35;100.00;98436.63;4485360;32;20130;-67
2023/07/27 02:14:06;;;;;;;2.12;1.60;;;;;;;11.34;100.00;98436.78;4485116;31;20119;-66
2023/07/27 02:16:54;;;;;;;1.92;1.50;;;;;;;11.36;100.00;98438.25;4482725;32;20096;-67
2023/07/27 02:19:31;;;;;;;5.05;1.50;;;;;;;11.31;100.00;98439.66;4484097;32;20104;-66
2023/07/27 02:22:02;;;;;;;2.60;1.50;;;;;;;11.34;100.00;98436.78;4483903;32;20147;-66
2023/07/27 02:24:32;;;;;;;2.05;1.50;;;;;;;11.31;100.00;98429.16;4483662;32;20610;-66
2023/07/27 02:27:00;;;;;;;1.70;1.40;;;;;;;11.29;100.00;98431.13;4484001;32;20359;-66
2023/07/27 02:29:28;;;;;;;1.92;1.42;;;;;;;11.28;100.00;98434.72;4483632;32;20514;-66
2023/07/27 02:31:56;;;;;;;2.40;1.80;;;;;;;11.29;100.00;98431.13;4485077;32;20148;-67
2023/07/27 02:34:24;;;;;;;3.37;1.30;;;;;;;11.26;100.00;98436.69;4484886;32;20104;-67
2023/07/27 02:36:51;;;;;;;2.37;1.77;;;;;;;11.22;100.00;98441.41;4484873;32;20575;-66
2023/07/27 02:39:19;;;;;;;2.22;1.40;;;;;;;11.16;100.00;98442.81;4485054;32;20161;-67
2023/07/27 02:41:47;;;;;;;2.17;1.87;;;;;;;11.09;100.00;98439.13;4484774;32;20118;-66
2023/07/27 02:44:15;;;;;;;3.10;1.83;;;;;;;11.02;100.00;98430.22;4484896;32;20101;-67
2023/07/27 02:46:44;;;;;;;2.15;1.70;;;;;;;10.97;100.00;98437.72;4484697;31;20140;-66
2023/07/27 02:49:12;;;;;;;3.17;1.60;;;;;;;10.82;100.00;98440.00;4484281;32;20088;-66
2023/07/27 02:51:41;;;;;;;2.58;1.60;;;;;;;10.81;100.00;98443.59;4484986;32;20180;-66
2023/07/27 02:54:09;;;;;;;2.22;1.60;;;;;;;10.83;100.00;98449.50;4483292;32;20108;-66
2023/07/27 02:56:36;;;;;;;2.78;1.87;;;;;;;10.88;100.00;98449.06;4484705;32;20164;-66
2023/07/27 02:59:04;;;;;;;1.77;1.67;;;;;;;10.80;100.00;98453.25;4484686;32;20100;-66
2023/07/27 03:01:33;;;;;;;2.33;1.73;;;;;;;10.78;100.00;98451.72;4483368;32;20111;-66
2023/07/27 03:04:02;;;;;;;4.35;1.77;;;;;;;10.74;100.00;98459.06;4484707;32;20123;-66
2023/07/27 03:06:31;;;;;;;2.37;1.70;;;;;;;10.74;100.00;98458.25;4484845;31;20120;-66
2023/07/27 03:08:59;;;;;;;2.67;1.85;;;;;;;10.76;100.00;98461.53;4484416;32;20160;-67
2023/07/27 03:11:26;;;;;;;2.83;1.95;;;;;;;10.78;100.00;98454.34;4484780;32;20100;-66
2023/07/27 03:13:56;;;;;;;4.10;2.42;;;;;;;10.78;100.00;98460.44;4484330;31;20104;-67
2023/07/27 03:16:24;;;;;;;2.05;1.60;;;;;;;10.84;100.00;98469.53;4484244;31;20100;-66
2023/07/27 03:18:52;;;;;;;2.87;1.98;;;;;;;10.90;100.00;98468.94;4483157;32;20137;-66
2023/07/27 03:21:20;;;;;;;4.43;1.80;;;;;;;10.88;100.00;98472.66;4484081;32;20428;-66
2023/07/27 03:23:50;;;;;;;3.40;2.12;;;;;;;10.93;100.00;98473.03;4484241;32;20104;-66
2023/07/27 03:26:17;;;;;;;1.58;1.37;;;;;;;10.94;100.00;98475.50;4484394;31;20104;-66
2023/07/27 03:28:46;;;;;;;2.70;1.67;;;;;;;10.93;100.00;98479.13;4486390;31;20417;-66
2023/07/27 03:31:20;;;;;;;2.30;1.80;;;;;;;10.92;100.00;98482.69;4486211;32;20116;-66
2023/07/27 03:33:48;;;;;;;2.25;1.70;;;;;;;10.95;100.00;98482.41;4486202;31;20112;-66
2023/07/27 03:36:16;;;;;;;2.20;1.50;;;;;;;10.99;100.00;98488.16;4486374;31;20788;-66
2023/07/27 03:38:45;;;;;;;3.50;2.00;;;;;;;10.94;100.00;98487.81;4486046;31;20139;-67
2023/07/27 03:41:14;;;;;;;3.53;1.92;;;;;;;10.96;100.00;98493.72;4486137;31;20462;-67
2023/07/27 03:43:45;;;;;;;5.15;1.90;;;;;;;10.99;100.00;98496.88;4486105;31;20813;-66
2023/07/27 03:46:12;;;;;;;1.70;1.45;;;;;;;11.05;100.00;98492.00;4486450;31;20093;-66
2023/07/27 03:48:41;;;;;;;2.45;1.62;;;;;;;11.07;100.00;98496.16;4485909;32;20068;-67
2023/07/27 03:51:09;;;;;;;1.87;1.48;;;;;;;11.13;100.00;98500.78;4486074;32;20488;-66
2023/07/27 03:53:36;;;;;;;3.58;1.85;;;;;;;11.18;100.00;98489.88;4486402;31;20764;-67
2023/07/27 03:56:04;;;;;;;1.58;1.45;;;;;;;11.22;100.00;98490.38;4486043;31;20529;-66
2023/07/27 03:58:32;;;;;;;4.60;1.83;;;;;;;11.24;100.00;98501.56;4486008;31;20105;-67
2023/07/27 04:00:59;;;;;;;3.42;1.70;;;;;;;11.31;100.00;98492.97;4486105;31;20096;-66
2023/07/27 04:03:27;;;;;;;2.42;1.50;;;;;;;11.41;100.00;98492.87;4483110;31;20517;-66
2023/07/27 04:05:55;;;;;;;3.15;2.58;;;;;;;11.47;100.00;98496.72;4485063;31;20100;-66
2023/07/27 04:08:23;;;;;;;2.62;1.70;;;;;;;11.45;100.00;98493.41;4485660;31;20093;-66
2023/07/27 04:10:52;;;;;;;1.90;1.48;;;;;;;11.49;100.00;98505.25;4486110;31;20108;-66
2023/07/27 04:13:19;;;;;;;2.60;2.15;;;;;;;11.63;100.00;98503.91;4484293;31;20105;-66
2023/07/27 04:15:46;;;;;;;3.20;1.55;;;;;;;11.65;100.00;98501.97;4480988;31;20096;-66
2023/07/27 04:18:14;;;;;;;2.58;1.55;;;;;;;11.70;100.00;98497.06;4488863;31;20465;-66
2023/07/27 04:20:42;;;;;;;3.12;1.70;;;;;;;11.74;100.00;98503.69;4477559;32;20112;-66
2023/07/27 04:23:09;;;;;;;1.70;1.60;;;;;;;11.81;100.00;98517.00;4484517;31;20614;-66
2023/07/27 04:25:37;;;;;;;2.92;1.80;;;;;;;11.81;100.00;98509.97;4485251;31;20133;-66
2023/07/27 04:28:08;;;;;;;5.37;1.52;;;;;;;11.83;100.00;98504.56;4472239;32;20125;-66
2023/07/27 04:30:35;;;;;;;3.65;1.77;;;;;;;11.90;100.00;98522.19;4487848;31;20103;-66
2023/07/27 04:33:02;;;;;;;2.47;1.70;;;;;;;11.85;100.00;98516.56;4487806;31;20118;-66
2023/07/27 04:35:29;;;;;;;3.95;1.98;;;;;;;11.93;100.00;98517.63;4484041;31;20120;-66
2023/07/27 04:37:57;;;;;;;2.33;1.40;;;;;;;11.97;100.00;98518.97;4480937;31;20103;-66
2023/07/27 04:40:24;;;;;;;4.50;1.95;;;;;;;12.05;100.00;98516.41;4482043;31;20555;-67
2023/07/27 04:42:53;;;;;;;2.10;1.75;;;;;;;12.11;100.00;98523.66;4486878;31;20629;-66
2023/07/27 04:45:21;;;;;;;2.33;1.90;;;;;;;12.22;100.00;98526.06;4484449;31;20080;-66
2023/07/27 04:47:50;;;;;;;1.98;1.62;;;;;;;12.32;100.00;98531.19;4484857;31;20092;-66
2023/07/27 04:50:19;;;;;;;2.65;2.03;;;;;;;12.34;100.00;98526.62;4484697;31;20461;-66
2023/07/27 04:52:46;;;;;;;3.70;1.65;;;;;;;12.45;100.00;98522.13;4484872;31;20453;-66
2023/07/27 04:55:13;;;;;;;2.20;1.55;;;;;;;12.45;100.00;98540.50;4484879;31;20104;-66
2023/07/27 04:57:41;;;;;;;1.85;1.60;;;;;;;12.60;100.00;98531.88;4484632;31;20173;-66
2023/07/27 05:00:09;;;;;;;4.70;1.45;;;;;;;12.70;100.00;98531.78;4485231;31;20519;-66
2023/07/27 05:02:40;;;;;;;2.42;1.30;;;;;;;12.72;100.00;98536.88;4484214;31;20140;-66
2023/07/27 05:05:10;;;;;;;2.42;1.67;;;;;;;12.80;100.00;98542.16;4483250;32;20152;-66
2023/07/27 05:07:38;;;;;;;3.53;1.40;;;;;;;12.82;100.00;98544.63;4488526;31;20108;-67
2023/07/27 05:10:06;;;;;;;3.17;2.03;;;;;;;12.98;100.00;98546.53;4486014;31;20115;-67
2023/07/27 05:12:33;;;;;;;1.73;1.35;;;;;;;12.99;100.00;98553.41;4484040;32;20450;-67
2023/07/27 05:15:00;;;;;;;1.75;1.50;;;;;;;13.09;100.00;98541.78;4484650;31;20087;-66
2023/07/27 05:17:28;;;;;;;2.65;1.65;;;;;;;13.18;100.00;98561.06;4485222;31;20421;-66
2023/07/27 05:19:57;;;;;;;3.15;1.37;;;;;;;13.22;100.00;98558.94;4489172;31;20166;-66
2023/07/27 05:22:25;;;;;;;2.10;1.62;;;;;;;13.36;100.00;98565.44;4487553;31;20504;-66
2023/07/27 05:24:54;;;;;;;3.22;2.00;;;;;;;13.31;100.00;98565.88;4482625;31;20160;-66
2023/07/27 05:27:22;;;;;;;3.83;1.55;;;;;;;13.44;100.00;98570.72;4476223;31;20371;-66
2023/07/27 05:29:50;;;;;;;3.42;1.58;;;;;;;13.52;100.00;98573.38;4486414;31;20874;-67
2023/07/27 05:32:17;;;;;;;1.87;1.45;;;;;;;13.66;100.00;98580.63;4489640;31;20139;-67
2023/07/27 05:34:45;;;;;;;2.10;1.35;;;;;;;13.72;100.00;98575.72;4478603;31;20092;-67
2023/07/27 05:37:12;;;;;;;1.67;1.35;;;;;;;13.81;100.00;98585.28;4484219;32;20118;-66
2023/07/27 05:39:42;;;;;;;2.22;1.62;;;;;;;13.91;100.00;98593.00;4485325;31;20088;-66
2023/07/27 05:42:10;;;;;;;2.12;1.58;;;;;;;14.01;100.00;98594.50;4487413;31;20108;-67
2023/07/27 05:44:37;;;;;;;2.87;1.40;;;;;;;14.05;100.00;98596.81;4483748;31;20101;-67
2023/07/27 05:47:05;;;;;;;1.67;1.58;;;;;;;14.26;100.00;98586.62;4481755;31;20126;-67
2023/07/27 05:49:33;;;;;;;2.50;1.73;;;;;;;14.35;100.00;98585.63;4484366;31;20521;-67
2023/07/27 05:52:00;;;;;;;3.33;1.60;;;;;;;14.48;100.00;98590.37;4481390;31;20134;-67
2023/07/27 05:54:29;;;;;;;3.33;1.40;;;;;;;14.62;100.00;98596.81;4484980;31;20434;-67
2023/07/27 05:56:57;;;;;;;1.27;1.17;;;;;;;14.60;100.00;98601.41;4483817;32;20097;-67
2023/07/27 05:59:25;;;;;;;2.72;1.40;;;;;;;14.71;100.00;98603.72;4487053;31;20112;-67
2023/07/27 06:01:53;;;;;;;3.47;1.52;;;;;;;14.72;100.00;98602.72;4485169;31;20656;-66
2023/07/27 06:04:23;;;;;;;1.77;1.40;;;;;;;14.75;100.00;98611.28;4493503;31;20213;-67
2023/07/27 06:06:53;;;;;;;1.75;1.35;;;;;;;14.94;100.00;98615.38;4487357;31;20151;-67
2023/07/27 06:09:21;;;;;;;3.12;1.50;;;;;;;14.93;100.00;98611.94;4482791;31;20316;-67
2023/07/27 06:11:48;;;;;;;1.87;1.33;;;;;;;15.04;100.00;98608.91;4478274;31;20127;-67
2023/07/27 06:14:16;;;;;;;2.78;1.30;;;;;;;15.33;100.00;98611.97;4476674;31;20128;-67
2023/07/27 06:16:45;;;;;;;2.12;1.60;;;;;;;15.40;100.00;98612.94;4481235;31;20095;-67
2023/07/27 06:19:13;;;;;;;1.75;1.42;;;;;;;15.44;100.00;98616.84;4479349;31;20128;-67
2023/07/27 06:21:41;;;;;;;1.90;1.65;;;;;;;15.31;100.00;98617.41;4479426;31;20768;-67
2023/07/27 06:24:10;;;;;;;2.00;1.70;;;;;;;15.41;100.00;98617.19;4482535;31;20159;-67
2023/07/27 06:26:37;;;;;;;2.72;1.62;;;;;;;15.31;100.00;98614.78;4481622;31;20730;-67
2023/07/27 06:29:04;;;;;;;2.45;1.70;;;;;;;15.39;100.00;98613.91;4480938;32;20112;-67
2023/07/27 06:31:32;;;;;;;3.62;1.83;;;;;;;15.52;100.00;98613.34;4477650;32;20112;-67
2023/07/27 06:34:02;;;;;;;1.70;1.37;;;;;;;15.72;100.00;98622.50;4472678;31;20156;-67
2023/07/27 06:36:29;;;;;;;2.60;1.52;;;;;;;15.89;100.00;98615.31;4482252;31;20133;-67
2023/07/27 06:38:57;;;;;;;1.50;1.30;;;;;;;16.02;100.00;98619.19;4479184;32;20096;-67
2023/07/27 06:41:25;;;;;;;4.72;1.52;;;;;;;16.18;100.00;98620.91;4480178;31;20418;-67
2023/07/27 06:43:52;;;;;;;4.70;1.50;;;;;;;16.12;100.00;98620.63;4478749;31;20104;-67
2023/07/27 06:46:20;;;;;;;2.17;1.55;;;;;;;16.36;99.71;98616.13;4481502;32;20527;-67
2023/07/27 06:48:48;;;;;;;2.28;1.23;;;;;;;16.45;99.28;98615.06;4481368;31;20148;-67
2023/07/27 06:51:16;;;;;;;4.68;1.55;;;;;;;16.44;99.15;98621.37;4481018;31;20126;-67
2023/07/27 06:53:45;;;;;;;2.15;1.30;;;;;;;16.60;97.85;98632.78;4479981;31;20708;-67
2023/07/27 06:56:17;;;;;;;1.70;1.33;;;;;;;16.67;96.56;98625.78;4480619;31;20087;-67
2023/07/27 06:58:44;;;;;;;2.53;1.70;;;;;;;16.76;95.49;98627.34;4480750;31;20152;-67
2023/07/27 07:01:12;;;;;;;7.05;1.80;;;;;;;16.70;95.52;98622.78;4475727;31;20123;-68
2023/07/27 07:03:39;;;;;;;3.00;1.48;;;;;;;16.62;97.52;98620.19;4480855;31;20444;-67
2023/07/27 07:06:06;;;;;;;1.83;1.52;;;;;;;16.62;96.54;98620.19;4478479;31;20604;-67
2023/07/27 07:08:33;;;;;;;1.65;1.23;;;;;;;16.70;95.26;98628.06;4480391;31;20111;-67
2023/07/27 07:11:01;;;;;;;2.12;1.40;;;;;;;16.82;94.73;98629.28;4473515;31;20105;-67
2023/07/27 07:13:31;;;;;;;1.85;1.15;;;;;;;16.93;93.62;98628.03;4478636;31;20158;-67
2023/07/27 07:16:00;;;;;;;5.82;1.83;;;;;;;17.11;94.61;98622.37;4480424;31;20464;-67
2023/07/27 07:18:27;;;;;;;1.87;1.50;;;;;;;16.90;92.74;98627.59;4480653;32;20514;-67
2023/07/27 07:20:56;;;;;;;1.45;1.27;;;;;;;16.95;93.71;98628.66;4480305;31;20096;-67
2023/07/27 07:23:23;;;;;;;3.08;1.60;;;;;;;16.94;94.69;98632.34;4481034;31;20197;-67
2023/07/27 07:25:51;;;;;;;2.40;1.80;;;;;;;17.07;92.21;98629.03;4480313;32;20501;-67
2023/07/27 07:28:19;;;;;;;1.85;1.48;;;;;;;17.05;92.66;98630.22;4475108;31;20120;-67
2023/07/27 07:30:48;;;;;;;3.08;1.77;;;;;;;17.29;91.64;98626.47;4479769;31;20080;-67
2023/07/27 07:33:17;;;;;;;2.67;1.67;;;;;;;17.43;89.93;98632.78;4479692;31;20116;-67
2023/07/27 07:35:44;;;;;;;2.03;1.40;;;;;;;17.50;89.59;98642.44;4480504;31;20104;-68
2023/07/27 07:38:11;;;;;;;2.58;1.62;;;;;;;17.38;90.00;98630.66;4479633;31;20164;-67
2023/07/27 07:40:39;;;;;;;2.42;1.83;;;;;;;17.46;90.18;98648.31;4480600;31;20130;-68
2023/07/27 07:43:08;;;;;;;4.03;1.60;;;;;;;17.61;89.63;98643.78;4479975;31;20105;-67
2023/07/27 07:45:36;;;;;;;4.03;2.05;;;;;;;17.80;88.95;98655.62;4478927;31;20104;-68
2023/07/27 07:48:05;;;;;;;2.03;1.65;;;;;;;17.98;87.48;98651.78;4479947;31;20679;-67
2023/07/27 07:50:36;;;;;;;1.87;1.20;;;;;;;17.76;85.68;98646.41;4479364;32;20578;-67
2023/07/27 07:53:08;;;;;;;1.67;1.30;;;;;;;17.79;84.94;98647.84;4479035;31;20565;-68
2023/07/27 07:55:45;;;;;;;2.42;1.37;;;;;;;17.98;85.26;98652.59;4476932;32;20107;-67
2023/07/27 07:58:12;;;;;;;1.80;1.50;;;;;;;18.23;83.37;98644.28;4479400;32;20542;-67
2023/07/27 08:00:39;;;;;;;2.40;1.45;;;;;;;18.33;80.73;98643.97;4480406;31;20115;-67
2023/07/27 08:03:07;;;;;;;2.15;1.62;;;;;;;18.36;82.24;98649.69;4480077;31;20207;-67
2023/07/27 08:05:35;;;;;;;2.35;1.40;;;;;;;18.31;82.00;98638.03;4477183;31;20100;-67
2023/07/27 08:08:02;;;;;;;2.28;1.58;;;;;;;18.51;83.30;98636.34;4479555;31;20099;-67
2023/07/27 08:10:30;;;;;;;3.00;1.90;;;;;;;18.43;82.07;98633.84;4479838;31;20127;-67
2023/07/27 08:12:58;;;;;;;2.05;1.42;;;;;;;18.59;83.40;98632.75;4478439;31;20113;-67
2023/07/27 08:15:26;;;;;;;3.37;1.55;;;;;;;18.54;82.30;98632.50;4485112;31;20522;-67
2023/07/27 08:17:53;;;;;;;3.05;1.30;;;;;;;18.74;83.36;98641.44;4480646;31;20118;-67
2023/07/27 08:20:21;;;;;;;6.55;1.60;;;;;;;18.75;83.01;98637.75;4481912;31;20141;-68
2023/07/27 08:22:50;;;;;;;2.65;1.50;;;;;;;18.76;81.84;98628.00;4482362;31;20104;-67
2023/07/27 08:25:21;;;;;;;1.52;1.40;;;;;;;18.95;80.39;98632.62;4482021;31;20159;-67
2023/07/27 08:27:50;;;;;;;1.90;1.50;;;;;;;19.13;82.62;98634.75;4483425;31;20759;-67
2023/07/27 08:30:19;;;;;;;1.98;1.45;;;;;;;19.38;81.83;98636.13;4480804;31;20097;-67
2023/07/27 08:32:47;;;;;;;3.55;1.55;;;;;;;19.28;78.97;98637.31;4479307;31;20093;-68
2023/07/27 08:35:14;;;;;;;1.70;1.48;;;;;;;19.19;77.79;98637.69;4482486;31;20113;-68
2023/07/27 08:37:42;;;;;;;2.03;1.25;;;;;;;19.15;77.77;98638.06;4477947;31;20104;-68
2023/07/27 08:40:11;;;;;;;1.73;1.62;;;;;;;19.36;76.15;98638.16;4481073;31;20100;-68
2023/07/27 08:42:39;;;;;;;2.17;1.40;;;;;;;19.64;77.92;98630.91;4480659;31;20171;-68
2023/07/27 08:45:06;;;;;;;2.60;1.60;;;;;;;19.78;75.69;98625.69;4480445;32;20156;-68
2023/07/27 08:47:34;;;;;;;2.45;1.42;;;;;;;19.89;72.55;98630.41;4481293;31;20115;-68
2023/07/27 08:50:03;;;;;;;1.77;1.33;;;;;;;20.03;71.89;98632.09;4482836;31;20165;-68
2023/07/27 08:52:30;;;;;;;1.30;1.20;;;;;;;19.99;72.75;98633.50;4481162;31;20156;-68
2023/07/27 08:54:59;;;;;;;2.53;1.35;;;;;;;20.11;74.22;98614.31;4478232;31;20112;-68
2023/07/27 08:57:26;;;;;;;2.33;1.40;;;;;;;19.89;70.40;98619.78;4479324;31;20131;-68
2023/07/27 08:59:54;;;;;;;2.10;1.35;;;;;;;20.31;71.71;98632.94;4479566;31;20150;-68
2023/07/27 09:02:22;;;;;;;3.60;1.60;;;;;;;20.41;67.05;98617.41;4480389;31;20502;-68
2023/07/27 09:04:51;;;;;;;2.67;1.50;;;;;;;20.52;68.57;98621.28;4478087;31;20112;-68
2023/07/27 09:07:19;;;;;;;2.17;1.40;;;;;;;20.41;70.20;98621.87;4482905;31;20453;-68
2023/07/27 09:09:53;;;;;;;3.10;1.37;;;;;;;20.37;67.04;98614.31;4480721;31;20092;-67
2023/07/27 09:12:24;;;;;;;2.22;1.15;;;;;;;20.28;63.03;98617.38;4482734;31;20111;-67
2023/07/27 09:14:51;;;;;;;1.65;1.20;;;;;;;20.15;61.81;98612.84;4481107;31;20104;-67
2023/07/27 09:17:18;;;;;;;2.12;1.27;;;;;;;19.91;63.44;98620.41;4479598;31;20476;-67
2023/07/27 09:19:45;;;;;;;2.53;1.10;;;;;;;20.35;64.37;98618.22;4480449;31;20179;-67
2023/07/27 09:22:13;;;;;;;1.50;1.15;;;;;;;20.63;63.82;98623.31;4475288;31;20177;-67
2023/07/27 09:24:41;;;;;;;3.83;1.55;;;;;;;20.74;61.16;98620.06;4479055;31;20096;-68
2023/07/27 09:27:10;;;;;;;2.03;1.70;;;;;;;20.67;62.80;98619.25;4478000;31;20180;-68
2023/07/27 09:29:37;;;;;;;1.83;1.20;;;;;;;20.79;61.26;98623.94;4480603;31;20097;-67
2023/07/27 09:32:09;;;;;;;1.95;1.50;;;;;;;21.05;59.94;98623.09;4477849;31;20183;-66
2023/07/27 09:34:37;;;;;;;1.92;1.70;;;;;;;20.96;59.01;98627.81;4474015;31;20447;-67
2023/07/27 09:37:05;;;;;;;3.35;1.70;;;;;;;21.18;61.91;98622.22;4472841;31;20135;-67
2023/07/27 09:39:35;;;;;;;1.27;1.10;;;;;;;21.31;60.56;98619.53;4476217;31;20155;-67
2023/07/27 09:42:03;;;;;;;4.37;1.58;;;;;;;21.75;59.64;98630.44;4476269;31;20105;-67
2023/07/27 09:44:38;;;;;;;2.12;1.52;;;;;;;21.91;56.18;98624.62;4474150;31;20135;-67
2023/07/27 09:47:17;;;;;;;2.17;1.62;;;;;;;21.34;58.52;98624.44;4479362;32;20124;-67
2023/07/27 09:49:44;;;;;;;2.12;1.40;;;;;;;20.80;61.00;98620.25;4478683;32;20810;-67
2023/07/27 09:52:12;;;;;;;1.58;1.05;;;;;;;21.07;60.49;98613.87;4476984;32;20474;-67
2023/07/27 09:54:39;;;;;;;1.83;1.30;;;;;;;21.21;60.06;98617.31;4482754;31;20152;-68
2023/07/27 09:57:07;;;;;;;3.58;1.80;;;;;;;21.12;59.31;98615.91;4482854;32;20126;-67
2023/07/27 09:59:34;;;;;;;3.00;1.50;;;;;;;21.37;60.68;98602.69;4483267;32;20477;-67
2023/07/27 10:02:01;;;;;;;1.17;1.08;;;;;;;21.58;59.84;98600.78;4484847;31;20502;-67
2023/07/27 10:04:30;;;;;;;1.92;1.20;;;;;;;21.43;59.73;98596.50;4484312;31;20089;-67
2023/07/27 10:06:58;;;;;;;2.78;1.20;;;;;;;21.56;56.01;98605.50;4482969;32;20104;-67
2023/07/27 10:09:25;;;;;;;3.33;1.62;;;;;;;21.57;56.36;98602.62;4484316;31;20123;-67
2023/07/27 10:11:55;;;;;;;2.10;1.25;;;;;;;21.93;54.38;98603.06;4484442;31;20092;-68
2023/07/27 10:14:26;;;;;;;4.35;1.30;;;;;;;21.80;54.91;98596.78;4484569;31;20092;-68
2023/07/27 10:17:04;;;;;;;3.05;1.48;;;;;;;21.65;56.64;98598.91;4484603;31;20443;-69
2023/07/27 10:19:45;;;;;;;1.52;1.15;;;;;;;21.76;56.81;98592.91;4483712;31;20101;-68
2023/07/27 10:22:17;;;;;;;1.95;1.52;;;;;;;21.79;54.57;98597.81;4484693;31;20450;-66
2023/07/27 10:24:58;;;;;;;2.70;1.35;;;;;;;21.56;55.90;98593.00;4484140;31;20076;-69
2023/07/27 10:27:53;;;;;;;1.10;1.00;;;;;;;21.72;55.93;98589.00;4484760;31;20153;-69
2023/07/27 10:30:22;;;;;;;1.95;1.20;;;;;;;21.79;54.28;98595.12;4484031;31;20145;-69
2023/07/27 10:33:25;;;;;;;1.65;1.02;;;;;;;22.02;53.71;98593.75;4484920;32;20196;-68
2023/07/27 10:36:01;;;;;;;2.60;1.37;;;;;;;21.80;53.88;98579.94;4419352;32;20094;-69
2023/07/27 10:38:31;;;;;;;1.40;1.10;;;;;;;22.17;53.65;98585.44;4420335;32;20152;-68
2023/07/27 10:41:12;;;;;;;3.58;1.23;;;;;;;22.19;53.22;98586.03;4420106;32;20160;-69
2023/07/27 10:44:08;;;;;;;1.58;1.45;;;;;;;22.24;52.23;98580.88;4420624;32;20117;-68
2023/07/27 10:46:36;;;;;;;1.50;1.08;;;;;;;22.18;52.08;98571.09;4419337;32;20105;-68
2023/07/27 10:49:10;;;;;;;3.85;1.55;;;;;;;22.22;54.05;98571.47;4419936;32;20380;-69
2023/07/27 10:51:41;;;;;;;2.55;1.25;;;;;;;21.93;53.24;98568.37;4419951;32;20121;-70
2023/07/27 10:54:09;;;;;;;2.53;1.30;;;;;;;22.04;54.12;98573.00;4420000;32;20195;-69
2023/07/27 10:56:40;;;;;;;1.23;1.08;;;;;;;22.29;51.40;98572.22;4407706;32;20081;-68
2023/07/27 10:59:13;;;;;;;1.20;1.05;;;;;;;22.59;52.08;98571.56;4420105;32;20106;-69
2023/07/27 11:01:42;;;;;;;1.25;1.10;;;;;;;22.20;50.98;98577.00;4420088;32;20124;-69
2023/07/27 11:04:10;;;;;;;2.15;1.30;;;;;;;21.84;52.95;98577.69;4420204;32;20093;-69
2023/07/27 11:06:41;;;;;;;1.17;1.00;;;;;;;22.35;51.53;98571.38;4407834;32;20185;-69
2023/07/27 11:09:15;;;;;;;1.27;1.00;;;;;;;22.85;51.73;98567.84;4420141;32;20491;-69
2023/07/27 11:11:43;;;;;;;1.37;1.15;;;;;;;22.98;48.86;98569.53;4457634;32;20097;-69
2023/07/27 11:14:11;;;;;;;1.85;1.08;;;;;;;23.26;47.73;98569.03;4484195;31;20126;-68
2023/07/27 11:16:39;;;;;;;2.42;1.20;;;;;;;23.47;47.82;98567.75;4482674;31;20778;-68
2023/07/27 11:19:09;;;;;;;2.05;1.45;;;;;;;22.99;48.15;98563.16;4483403;31;20138;-68
2023/07/27 11:21:40;;;;;;;2.62;1.02;;;;;;;23.30;47.86;98564.88;4483087;31;20096;-68
2023/07/27 11:24:08;;;;;;;3.80;1.48;;;;;;;23.29;49.57;98552.53;4483058;32;20139;-68
2023/07/27 11:26:37;;;;;;;2.53;1.52;;;;;;;23.62;49.30;98563.84;4482881;32;20580;-68
2023/07/27 11:29:06;;;;;;;1.77;1.17;;;;;;;23.76;46.79;98556.47;4483504;32;20153;-69
2023/07/27 11:31:33;;;;;;;1.87;1.20;;;;;;;23.64;46.41;98543.03;4484217;31;20550;-69
2023/07/27 11:34:02;;;;;;;1.62;1.20;;;;;;;23.41;45.19;98552.59;4484268;31;20134;-68
2023/07/27 11:36:32;;;;;;;1.45;1.05;;;;;;;22.90;46.40;98543.13;4483971;31;20115;-68
2023/07/27 11:39:02;;;;;;;1.80;1.00;;;;;;;22.57;45.57;98544.28;4483899;32;20442;-68